ADDS METAR Data INFO
IDs: Format: Raw Decoded Include TAF

Data at: 0028 UTC 11 Dec 2017

KSMN 102356Z AUTO 00000KT 10SM OVC011 M08/M10 A3072 RMK AO2 SLP471 60000 T10781100 11078 21089 56008 FZRANO
KSMN 102256Z AUTO 25003KT 10SM OVC011 M08/M10 A3073 RMK AO2 SLP472 T10781100 FZRANO
KSMN 102156Z AUTO VRB03KT 10SM OVC011 M08/M10 A3073 RMK AO2 SNE07 SLP472 P0000 T10781100 FZRANO
KSMN 102056Z AUTO 00000KT 10SM -SN OVC011 M08/M10 A3075 RMK AO2 SNB53 SLP478 P0000 60000 T10781100 58016 FZRANO
KSMN 101956Z AUTO VRB03KT 10SM OVC011 M08/M11 A3078 RMK AO2 SLP489 T10781106 FZRANO
KSMN 101856Z AUTO 35003KT 10SM OVC009 M08/M11 A3080 RMK AO2 SNE01 SLP496 P0000 T10831106 FZRANO
KSMN 101756Z AUTO 06004KT 9SM -SN OVC007 M09/M11 A3080 RMK AO2 SLP499 P0000 60000 T10891106 11083 21089 51004 FZRANO
KSMN 101656Z AUTO 09005KT 9SM -SN OVC007 M09/M11 A3079 RMK AO2 SLP495 P0000 T10891106 FZRANO
KSMN 101556Z AUTO 08007KT 9SM -SN OVC007 M09/M11 A3079 RMK AO2 SNB11E28B45 SLP497 P0000 T10891106 FZRANO
KSMN 101456Z AUTO 07005KT 10SM OVC007 M09/M11 A3078 RMK AO2 SLP491 60000 T10891106 50001 FZRANO
KSMN 101356Z AUTO 01004KT 10SM OVC007 M09/M10 A3079 RMK AO2 SLP493 T10891100 FZRANO
KSMN 101256Z AUTO 07004KT 10SM OVC007 M09/M10 A3078 RMK AO2 SNE00 SLP491 P0000 T10891100 FZRANO
KSMN 101156Z AUTO 08005KT 9SM -SN OVC007 M09/M11 A3078 RMK AO2 SNB50 SLP490 P0000 60000 T10891106 11078 21089 56002 FZRANO
KSMN 101056Z AUTO 08006KT 9SM OVC009 M08/M11 A3078 RMK AO2 SNB46E56 SLP491 P0000 T10831106 FZRANO
KSMN 100956Z AUTO 08006KT 10SM OVC009 M08/M10 A3079 RMK AO2 SLP490 T10831100 FZRANO
KSMN 100856Z AUTO 08006KT 10SM OVC009 M08/M10 A3079 RMK AO2 SLP493 60000 T10831100 51004 FZRANO
KSMN 100756Z AUTO 06004KT 10SM OVC009 M08/M10 A3079 RMK AO2 SLP490 T10781100 FZRANO
KSMN 100656Z AUTO 06006KT 9SM OVC009 M08/M09 A3079 RMK AO2 SNB42E51 SLP491 P0000 T10781094 410671089 FZRANO
KSMN 100609Z AUTO 03004KT 10SM OVC009 M08/M09 A3078 RMK AO2 FZRANO
KSMN 100556Z AUTO 00000KT 10SM OVC011 M08/M09 A3077 RMK AO2 SLP488 T10781094 11072 21078 53007 FZRANO
KSMN 100456Z AUTO 00000KT 10SM OVC011 M07/M09 A3076 RMK AO2 SLP483 T10721094 FZRANO
KSMN 100356Z AUTO 26003KT 10SM OVC011 M08/M09 A3076 RMK AO2 SLP486 T10781094 FZRANO
KSMN 100256Z AUTO 28003KT 10SM OVC011 M07/M09 A3075 RMK AO2 SLP480 T10721094 51007 FZRANO
KSMN 100156Z AUTO 30003KT 10SM OVC011 M07/M09 A3075 RMK AO2 SLP478 T10721094 FZRANO
KSMN 100056Z AUTO 25003KT 10SM OVC013 M07/M09 A3074 RMK AO2 SLP473 T10721094 FZRANO
KSMN 092356Z AUTO 24003KT 10SM OVC013 M07/M09 A3073 RMK AO2 SLP469 60000 T10721094 11067 21078 55002 FZRANO
KSMN 092256Z AUTO 00000KT 10SM OVC013 M07/M09 A3072 RMK AO2 SLP469 T10721094 FZRANO
KSMN 092156Z AUTO VRB03KT 10SM OVC013 M07/M09 A3072 RMK AO2 SLP469 T10671094 FZRANO
KSMN 092056Z AUTO 00000KT 10SM OVC013 M07/M09 A3073 RMK AO2 SLP472 60000 T10721094 57017 FZRANO
KSMN 091956Z AUTO 36003KT 10SM OVC013 M07/M09 A3075 RMK AO2 SLP478 T10721094 FZRANO
KSMN 091856Z AUTO 01005KT 10SM OVC011 M07/M09 A3077 RMK AO2 SNB05E27 SLP484 P0000 T10721094 FZRANO
KSMN 091756Z AUTO 32004KT 10SM OVC007 M08/M09 A3079 RMK AO2 SNB04E19B35E47 SLP492 P0000 60000 T10781094 11078 21089 51008 FZRANO
KSMN 091656Z AUTO 33004KT 7SM OVC007 M09/M10 A3079 RMK AO2 SNE06B31E44 SLP492 P0000 T10891100 FZRANO
KSMN 091556Z AUTO 32004KT 9SM -SN OVC007 M09/M10 A3078 RMK AO2 SNB00E09B41 SLP489 P0000 T10891100 FZRANO
KSMN 091456Z AUTO 33004KT 10SM OVC007 M09/M11 A3076 RMK AO2 SLP484 T10891106 50000 FZRANO
KSMN 091256Z AUTO 35005KT 10SM OVC007 M08/M09 A3076 RMK AO2 SLP482 T10781094 FZRANO